createdAt,value
2018-11-02T00:01:00.637Z,99.90
2018-11-02T00:03:28.894Z,99.90
2018-11-02T00:05:57.585Z,99.90
2018-11-02T00:08:25.835Z,99.90
2018-11-02T00:10:54.045Z,99.90
2018-11-02T00:13:22.508Z,99.90
2018-11-02T00:15:50.729Z,99.90
2018-11-02T00:18:18.962Z,99.90
2018-11-02T00:20:47.289Z,99.90
2018-11-02T00:23:15.594Z,99.90
2018-11-02T00:25:43.817Z,99.90
2018-11-02T00:28:13.561Z,99.90
2018-11-02T00:30:41.794Z,99.90
2018-11-02T00:33:10.053Z,99.90
2018-11-02T00:35:38.249Z,99.90
2018-11-02T00:38:06.484Z,99.90
2018-11-02T00:40:34.705Z,99.90
2018-11-02T00:43:02.917Z,99.90
2018-11-02T00:45:31.187Z,99.90
2018-11-02T00:47:59.405Z,99.90
2018-11-02T00:50:27.914Z,99.90
2018-11-02T00:52:56.167Z,99.90
2018-11-02T00:55:24.373Z,99.90
2018-11-02T00:57:52.617Z,99.90
2018-11-02T01:00:20.853Z,99.90
2018-11-02T01:02:49.093Z,99.90
2018-11-02T01:05:17.349Z,99.90
2018-11-02T01:07:45.594Z,99.90
2018-11-02T01:10:13.809Z,99.90
2018-11-02T01:12:42.068Z,99.90
2018-11-02T01:15:10.708Z,99.90
2018-11-02T01:17:38.934Z,99.90
2018-11-02T01:20:09.006Z,99.90
2018-11-02T01:22:37.222Z,99.90
2018-11-02T01:25:06.354Z,99.90
2018-11-02T01:27:34.813Z,99.90
2018-11-02T01:30:03.105Z,99.90
2018-11-02T01:32:31.362Z,99.90
2018-11-02T01:34:59.937Z,99.90
2018-11-02T01:37:28.124Z,99.90
2018-11-02T01:39:56.372Z,99.90
2018-11-02T01:42:24.592Z,99.90
2018-11-02T01:44:52.861Z,99.90
2018-11-02T01:47:21.090Z,99.90
2018-11-02T01:49:49.313Z,99.90
2018-11-02T01:52:17.553Z,99.90
2018-11-02T01:54:45.781Z,99.90
2018-11-02T01:57:14.145Z,99.90
2018-11-02T01:59:42.426Z,99.90
2018-11-02T02:02:10.649Z,99.90
2018-11-02T02:06:08.107Z,99.90
2018-11-02T02:08:36.351Z,99.90
2018-11-02T02:11:05.053Z,99.90
2018-11-02T02:13:33.283Z,99.90
2018-11-02T02:16:01.536Z,99.90
2018-11-02T02:18:29.967Z,99.90
2018-11-02T02:20:58.210Z,99.90
2018-11-02T02:23:26.772Z,99.90
2018-11-02T02:25:54.983Z,99.90
2018-11-02T02:28:23.208Z,99.90
2018-11-02T02:30:51.686Z,99.90
2018-11-02T02:33:19.926Z,99.90
2018-11-02T02:35:48.162Z,99.90
2018-11-02T02:38:16.385Z,99.90
2018-11-02T02:40:44.757Z,99.90
2018-11-02T02:43:13.051Z,99.90
2018-11-02T02:45:41.186Z,99.90
2018-11-02T02:48:09.405Z,99.90
2018-11-02T02:50:37.661Z,99.90
2018-11-02T02:53:05.894Z,99.90
2018-11-02T02:55:34.105Z,99.90
2018-11-02T02:58:02.380Z,99.90
2018-11-02T03:00:30.625Z,99.90
2018-11-02T03:02:58.934Z,99.90
2018-11-02T03:05:27.205Z,99.90
2018-11-02T03:07:55.433Z,99.90
2018-11-02T03:10:23.798Z,99.90
2018-11-02T03:12:51.939Z,99.90
2018-11-02T03:15:20.221Z,99.90
2018-11-02T03:17:48.469Z,99.90
2018-11-02T03:20:16.705Z,99.90
2018-11-02T03:22:45.150Z,99.90
2018-11-02T03:25:13.427Z,99.90
2018-11-02T03:27:41.625Z,99.90
2018-11-02T03:30:11.336Z,99.90
2018-11-02T03:32:39.614Z,99.90
2018-11-02T03:35:08.105Z,99.90
2018-11-02T03:37:36.325Z,99.90
2018-11-02T03:40:04.759Z,99.90
2018-11-02T03:42:32.977Z,99.90
2018-11-02T03:45:01.183Z,99.90
2018-11-02T03:47:29.431Z,99.90
2018-11-02T03:49:57.629Z,99.90
2018-11-02T03:52:26.091Z,99.90
2018-11-02T03:54:54.870Z,99.90
2018-11-02T03:57:23.073Z,99.90
2018-11-02T03:59:51.352Z,99.90
2018-11-02T04:02:19.582Z,99.90
2018-11-02T04:04:47.824Z,99.90
2018-11-02T04:07:16.117Z,99.90
2018-11-02T04:09:45.534Z,99.90
2018-11-02T04:12:13.684Z,99.90
2018-11-02T04:14:41.966Z,99.90
2018-11-02T04:17:10.194Z,99.90
2018-11-02T04:19:38.389Z,99.90
2018-11-02T04:22:06.636Z,99.90
2018-11-02T04:24:34.874Z,99.90
2018-11-02T04:27:03.174Z,99.90
2018-11-02T04:29:31.360Z,99.90
2018-11-02T04:31:59.689Z,99.90
2018-11-02T04:34:27.945Z,99.90
2018-11-02T04:36:56.172Z,99.90
2018-11-02T04:39:24.397Z,99.90
2018-11-02T04:41:52.621Z,99.90
2018-11-02T04:44:20.963Z,99.90
2018-11-02T04:46:49.225Z,99.90
2018-11-02T04:49:17.449Z,99.90
2018-11-02T04:51:45.674Z,99.90
2018-11-02T04:54:13.947Z,99.90
2018-11-02T04:56:42.196Z,99.90
2018-11-02T04:59:10.734Z,99.90
2018-11-02T05:01:38.971Z,99.90
2018-11-02T05:04:07.214Z,99.90
2018-11-02T05:06:35.414Z,99.90
2018-11-02T05:09:03.790Z,99.90
2018-11-02T05:11:32.168Z,99.90
2018-11-02T05:14:00.233Z,99.90
2018-11-02T05:16:28.641Z,99.90
2018-11-02T05:18:56.894Z,99.90
2018-11-02T05:21:25.159Z,99.90
2018-11-02T05:23:53.349Z,99.90
2018-11-02T05:26:21.561Z,99.90
2018-11-02T05:28:49.805Z,99.90
2018-11-02T05:31:18.081Z,99.90
2018-11-02T05:33:46.308Z,99.90
2018-11-02T05:36:14.577Z,99.90
2018-11-02T05:38:42.737Z,99.90
2018-11-02T05:41:10.964Z,99.90
2018-11-02T05:43:39.165Z,99.90
2018-11-02T05:46:07.625Z,99.90
2018-11-02T05:48:35.801Z,99.90
2018-11-02T05:51:04.263Z,99.90
2018-11-02T05:53:32.486Z,99.90
2018-11-02T05:56:00.745Z,99.90
2018-11-02T05:58:28.948Z,99.90
2018-11-02T06:00:57.329Z,99.90
2018-11-02T06:03:25.534Z,99.90
2018-11-02T06:05:53.775Z,99.90
2018-11-02T06:08:22.029Z,99.90
2018-11-02T06:10:50.241Z,99.90
2018-11-02T06:13:18.513Z,99.90
2018-11-02T06:15:46.825Z,99.90
2018-11-02T06:18:15.043Z,99.90
2018-11-02T06:20:43.261Z,99.90
2018-11-02T06:23:11.493Z,99.90
2018-11-02T06:25:39.697Z,99.90
2018-11-02T06:28:07.921Z,99.90
2018-11-02T06:30:36.269Z,99.90
2018-11-02T06:33:04.487Z,99.90
2018-11-02T06:35:32.693Z,99.90
2018-11-02T06:38:00.929Z,99.90
2018-11-02T06:40:29.146Z,99.90
2018-11-02T06:42:57.371Z,99.90
2018-11-02T06:45:25.699Z,99.90
2018-11-02T06:47:53.933Z,99.90
2018-11-02T06:50:22.157Z,99.90
2018-11-02T06:52:50.428Z,99.90
2018-11-02T06:55:18.727Z,99.90
2018-11-02T06:57:46.937Z,99.90
2018-11-02T07:00:15.147Z,99.90
2018-11-02T07:02:43.329Z,99.90
2018-11-02T07:05:11.517Z,99.90
2018-11-02T07:07:40.189Z,99.90
2018-11-02T07:10:09.233Z,99.90
2018-11-02T07:12:37.475Z,99.90
2018-11-02T07:15:06.311Z,99.90
2018-11-02T07:17:34.633Z,99.90
2018-11-02T07:20:02.957Z,99.90
2018-11-02T07:22:31.165Z,99.90
2018-11-02T07:24:59.489Z,99.90
2018-11-02T07:27:27.637Z,99.90
2018-11-02T07:29:55.914Z,99.90
2018-11-02T07:32:24.113Z,99.90
2018-11-02T07:34:52.356Z,99.90
2018-11-02T07:37:20.650Z,99.90
2018-11-02T07:39:49.064Z,99.90
2018-11-02T07:42:17.298Z,99.90
2018-11-02T07:44:45.522Z,99.90
2018-11-02T07:47:13.928Z,99.90
2018-11-02T07:49:42.976Z,99.90
2018-11-02T07:52:11.277Z,99.90
2018-11-02T07:54:39.530Z,99.90
2018-11-02T07:57:07.742Z,99.90
2018-11-02T07:59:36.105Z,99.90
2018-11-02T08:02:04.914Z,99.90
2018-11-02T08:04:32.991Z,99.90
2018-11-02T08:07:01.269Z,99.90
2018-11-02T08:09:30.178Z,99.90
2018-11-02T08:11:58.391Z,99.90
2018-11-02T08:14:26.614Z,99.90
2018-11-02T08:16:54.877Z,99.90
2018-11-02T08:19:23.544Z,99.90
2018-11-02T08:21:51.822Z,99.90
2018-11-02T08:24:20.218Z,99.90
2018-11-02T08:26:48.598Z,99.90
2018-11-02T08:29:16.832Z,99.90
2018-11-02T08:31:45.054Z,99.90
2018-11-02T08:34:13.455Z,99.90
2018-11-02T08:36:41.701Z,99.90
2018-11-02T08:39:11.458Z,99.90
2018-11-02T08:41:39.681Z,99.90
2018-11-02T08:44:08.237Z,99.90
2018-11-02T08:46:36.608Z,99.90
2018-11-02T08:49:04.936Z,99.90
2018-11-02T08:51:38.821Z,99.90
2018-11-02T08:54:07.196Z,99.90
2018-11-02T08:56:35.479Z,99.90
2018-11-02T08:59:03.807Z,99.90
2018-11-02T09:01:31.952Z,99.90
2018-11-02T09:04:00.187Z,99.90
2018-11-02T09:06:28.409Z,99.90
2018-11-02T09:08:56.685Z,99.90
2018-11-02T09:11:24.911Z,99.40
2018-11-02T09:13:53.204Z,98.90
2018-11-02T09:16:21.711Z,97.60
2018-11-02T09:18:49.991Z,97.70
2018-11-02T09:21:18.345Z,96.20
2018-11-02T09:23:46.583Z,96.00
2018-11-02T09:26:14.802Z,95.30
2018-11-02T09:28:43.141Z,94.90
2018-11-02T09:31:11.508Z,93.20
2018-11-02T09:33:39.621Z,92.40
2018-11-02T09:36:07.857Z,92.10
2018-11-02T09:38:36.278Z,91.60
2018-11-02T09:41:04.601Z,91.10
2018-11-02T09:43:33.123Z,90.70
2018-11-02T09:46:01.379Z,90.20
2018-11-02T09:48:29.599Z,89.50
2018-11-02T09:50:58.041Z,90.20
2018-11-02T09:53:26.278Z,87.90
2018-11-02T09:55:54.489Z,86.20
2018-11-02T09:58:22.722Z,85.60
2018-11-02T10:00:51.001Z,84.80
2018-11-02T10:03:19.205Z,84.10
2018-11-02T10:05:47.610Z,84.60
2018-11-02T10:08:15.887Z,84.10
2018-11-02T10:10:44.487Z,84.90
2018-11-02T10:13:12.731Z,83.40
2018-11-02T10:15:41.130Z,81.70
2018-11-02T10:18:09.382Z,78.00
2018-11-02T10:20:37.746Z,74.60
2018-11-02T10:23:06.250Z,73.70
2018-11-02T10:25:34.518Z,68.60
2018-11-02T10:28:02.826Z,65.30
2018-11-02T10:30:31.072Z,62.80
2018-11-02T10:32:59.329Z,58.80
2018-11-02T10:35:27.659Z,56.10
2018-11-02T10:37:57.372Z,55.50
2018-11-02T10:40:25.637Z,54.80
2018-11-02T10:42:58.333Z,54.40
2018-11-02T10:45:31.995Z,53.20
2018-11-02T10:48:01.104Z,54.00
2018-11-02T10:50:29.354Z,56.50
2018-11-02T10:52:57.598Z,56.60
2018-11-02T10:55:25.868Z,57.40
2018-11-02T10:57:54.098Z,57.80
2018-11-02T11:00:27.748Z,58.60
2018-11-02T11:02:55.974Z,58.90
2018-11-02T11:05:24.449Z,60.40
2018-11-02T11:07:52.614Z,60.50
2018-11-02T11:10:20.879Z,64.20
2018-11-02T11:12:49.384Z,64.70
2018-11-02T11:15:17.434Z,66.50
2018-11-02T11:17:45.726Z,69.30
2018-11-02T11:20:14.422Z,69.50
2018-11-02T11:22:43.021Z,68.20
2018-11-02T11:25:13.505Z,70.00
2018-11-02T11:27:42.069Z,69.90
2018-11-02T11:30:15.014Z,72.00
2018-11-02T11:32:43.457Z,74.60
2018-11-02T11:35:13.624Z,74.90
2018-11-02T11:37:42.437Z,75.50
2018-11-02T11:40:13.476Z,74.70
2018-11-02T11:42:42.096Z,75.00
2018-11-02T11:45:12.424Z,75.80
2018-11-02T11:47:40.967Z,77.20
2018-11-02T11:50:19.443Z,78.50
2018-11-02T11:52:49.184Z,79.10
2018-11-02T11:55:17.809Z,80.30
2018-11-02T11:57:46.065Z,80.30
2018-11-02T12:00:16.082Z,81.80
2018-11-02T12:02:45.173Z,83.70
2018-11-02T12:05:14.971Z,83.90
2018-11-02T12:07:43.770Z,84.40
2018-11-02T12:10:14.513Z,85.30
2018-11-02T12:12:42.780Z,85.80
2018-11-02T12:15:13.378Z,86.50
2018-11-02T12:17:42.264Z,87.80
2018-11-02T12:20:13.761Z,88.60
2018-11-02T12:22:42.236Z,88.50
2018-11-02T12:25:11.991Z,88.10
2018-11-02T12:27:40.256Z,86.70
2018-11-02T12:30:10.339Z,86.90
2018-11-02T12:32:38.583Z,88.40
2018-11-02T12:35:07.403Z,90.40
2018-11-02T12:37:35.865Z,90.10
2018-11-02T12:40:04.857Z,89.60
2018-11-02T12:42:33.121Z,89.70
2018-11-02T12:45:01.651Z,89.60
2018-11-02T12:47:30.122Z,88.00
2018-11-02T12:49:59.568Z,87.60
2018-11-02T12:52:27.645Z,87.30
2018-11-02T12:54:55.975Z,87.50
2018-11-02T12:57:24.225Z,87.70
2018-11-02T12:59:52.450Z,86.50
2018-11-02T13:02:20.717Z,84.90
2018-11-02T13:04:48.958Z,85.40
2018-11-02T13:07:17.217Z,83.00
2018-11-02T13:09:45.470Z,83.50
2018-11-02T13:12:13.785Z,83.00
2018-11-02T13:14:42.085Z,82.00
2018-11-02T13:17:10.671Z,82.00
2018-11-02T13:19:39.047Z,81.90
2018-11-02T13:22:07.412Z,82.10
2018-11-02T13:24:35.806Z,81.20
2018-11-02T13:27:04.045Z,80.70
2018-11-02T13:29:32.369Z,80.40
2018-11-02T13:32:00.818Z,80.50
2018-11-02T13:34:29.015Z,80.90
2018-11-02T13:36:57.451Z,81.10
2018-11-02T13:39:25.616Z,81.10
2018-11-02T13:41:53.998Z,82.30
2018-11-02T13:44:22.531Z,82.10
2018-11-02T13:46:50.909Z,82.20
2018-11-02T13:49:19.500Z,81.90
2018-11-02T13:51:47.769Z,81.40
2018-11-02T13:54:16.251Z,81.20
2018-11-02T13:56:45.245Z,81.80
2018-11-02T13:59:13.547Z,82.20
2018-11-02T14:01:41.933Z,83.20
2018-11-02T14:04:10.190Z,82.60
2018-11-02T14:06:38.556Z,81.50
2018-11-02T14:09:07.694Z,83.20
2018-11-02T14:11:37.043Z,83.40
2018-11-02T14:14:05.710Z,81.70
2018-11-02T14:16:34.042Z,81.50
2018-11-02T14:19:02.498Z,81.80
2018-11-02T14:21:30.793Z,82.50
2018-11-02T14:23:59.022Z,82.50
2018-11-02T14:26:27.303Z,82.60
2018-11-02T14:28:55.732Z,82.20
2018-11-02T14:31:23.964Z,82.60
2018-11-02T14:33:52.437Z,83.20
2018-11-02T14:36:20.833Z,84.00
2018-11-02T14:38:49.222Z,83.60
2018-11-02T14:41:18.318Z,83.30
2018-11-02T14:43:46.465Z,84.40
2018-11-02T14:46:14.697Z,85.80
2018-11-02T14:48:42.965Z,87.00
2018-11-02T14:51:11.306Z,88.30
2018-11-02T14:53:39.699Z,87.10
2018-11-02T14:56:07.991Z,88.20
2018-11-02T14:58:36.274Z,88.60
2018-11-02T15:01:04.885Z,87.70
2018-11-02T15:03:33.294Z,88.10
2018-11-02T15:06:01.550Z,88.90
2018-11-02T15:08:29.873Z,89.60
2018-11-02T15:10:58.114Z,90.10
2018-11-02T15:13:26.634Z,89.40
2018-11-02T15:15:54.924Z,90.30
2018-11-02T15:18:23.190Z,90.70
2018-11-02T15:20:51.459Z,91.40
2018-11-02T15:23:19.702Z,92.00
2018-11-02T15:25:47.970Z,91.60
2018-11-02T15:28:16.606Z,92.10
2018-11-02T15:30:44.868Z,92.10
2018-11-02T15:33:13.159Z,92.10
2018-11-02T15:35:41.734Z,91.60
2018-11-02T15:38:09.981Z,91.40
2018-11-02T15:40:38.223Z,91.70
2018-11-02T15:43:06.489Z,92.00
2018-11-02T15:45:35.454Z,92.40
2018-11-02T15:48:03.686Z,92.90
2018-11-02T15:50:32.215Z,92.70
2018-11-02T15:53:00.492Z,93.20
2018-11-02T15:55:28.953Z,93.60
2018-11-02T15:57:57.263Z,93.80
2018-11-02T16:00:25.527Z,94.10
2018-11-02T16:02:53.824Z,95.00
2018-11-02T16:05:22.110Z,96.30
2018-11-02T16:07:50.382Z,96.70
2018-11-02T16:10:18.642Z,97.20
2018-11-02T16:12:46.938Z,97.30
2018-11-02T16:15:15.397Z,98.00
2018-11-02T16:17:43.615Z,99.50
2018-11-02T16:20:13.253Z,99.90
2018-11-02T16:22:41.570Z,99.90
2018-11-02T16:25:10.550Z,99.90
2018-11-02T16:27:38.845Z,99.90
2018-11-02T16:30:07.778Z,99.90
2018-11-02T16:32:36.025Z,99.90
2018-11-02T16:35:04.671Z,99.90
2018-11-02T16:37:32.946Z,99.90
2018-11-02T16:40:01.337Z,99.90
2018-11-02T16:42:29.686Z,99.90
2018-11-02T16:44:57.913Z,99.90
2018-11-02T16:47:26.255Z,99.90
2018-11-02T16:49:54.516Z,99.90
2018-11-02T16:52:22.913Z,99.90
2018-11-02T16:54:51.439Z,99.90
2018-11-02T16:57:19.768Z,99.90
2018-11-02T16:59:47.944Z,99.90
2018-11-02T17:02:16.182Z,99.90
2018-11-02T17:04:44.471Z,99.90
2018-11-02T17:07:12.685Z,99.90
2018-11-02T17:09:47.402Z,99.90
2018-11-02T17:12:15.676Z,99.90
2018-11-02T17:14:43.955Z,99.90
2018-11-02T17:17:12.188Z,99.90
2018-11-02T17:19:40.609Z,99.90
2018-11-02T17:22:08.814Z,99.90
2018-11-02T17:24:37.111Z,99.90
2018-11-02T17:27:05.334Z,99.90
2018-11-02T17:29:34.095Z,99.90
2018-11-02T17:32:02.511Z,99.90
2018-11-02T17:34:30.766Z,99.90
2018-11-02T17:36:59.073Z,99.90
2018-11-02T17:39:27.436Z,99.90
2018-11-02T17:41:55.673Z,99.90
2018-11-02T17:44:23.886Z,99.90
2018-11-02T17:46:52.332Z,99.90
2018-11-02T17:49:20.542Z,99.90
2018-11-02T17:51:48.781Z,99.90
2018-11-02T17:54:17.003Z,99.90
2018-11-02T17:56:45.245Z,99.90
2018-11-02T17:59:13.642Z,99.90
2018-11-02T18:01:41.810Z,99.90
2018-11-02T18:04:10.131Z,99.90
2018-11-02T18:06:38.352Z,99.90
2018-11-02T18:09:08.754Z,99.90
2018-11-02T18:11:37.000Z,99.90
2018-11-02T18:14:05.255Z,99.90
2018-11-02T18:16:33.500Z,99.90
2018-11-02T18:19:01.734Z,99.90
2018-11-02T18:21:30.239Z,99.90
2018-11-02T18:23:58.749Z,99.90
2018-11-02T18:26:27.203Z,99.90
2018-11-02T18:28:55.502Z,99.90
2018-11-02T18:31:23.729Z,99.90
2018-11-02T18:33:51.945Z,99.90
2018-11-02T18:36:20.238Z,99.90
2018-11-02T18:38:48.449Z,99.90
2018-11-02T18:41:16.764Z,99.90
2018-11-02T18:43:46.504Z,99.90
2018-11-02T18:46:14.726Z,99.90
2018-11-02T18:48:43.001Z,99.90
2018-11-02T18:51:11.363Z,99.90
2018-11-02T18:53:39.582Z,99.90
2018-11-02T18:56:07.853Z,99.90
2018-11-02T18:58:36.110Z,99.90
2018-11-02T19:01:04.599Z,99.90
2018-11-02T19:03:32.905Z,99.90
2018-11-02T19:06:01.490Z,99.90
2018-11-02T19:08:29.829Z,99.90
2018-11-02T19:10:58.159Z,99.90
2018-11-02T19:13:27.531Z,99.90
2018-11-02T19:15:55.675Z,99.90
2018-11-02T19:18:23.970Z,99.90
2018-11-02T19:20:52.263Z,99.90
2018-11-02T19:23:20.772Z,99.90
2018-11-02T19:25:49.198Z,99.90
2018-11-02T19:28:17.701Z,99.90
2018-11-02T19:30:46.180Z,99.90
2018-11-02T19:33:14.705Z,99.90
2018-11-02T19:35:43.217Z,99.90
2018-11-02T19:38:11.947Z,99.90
2018-11-02T19:40:40.245Z,99.90
2018-11-02T19:43:08.753Z,99.90
2018-11-02T19:45:37.280Z,99.90
2018-11-02T19:48:06.574Z,99.90
2018-11-02T19:50:35.355Z,99.90
2018-11-02T19:53:03.810Z,99.90
2018-11-02T19:55:32.490Z,99.90
2018-11-02T19:58:00.979Z,99.90
2018-11-02T20:00:29.486Z,99.90
2018-11-02T20:02:58.002Z,99.90
2018-11-02T20:05:26.486Z,99.90
2018-11-02T20:07:55.041Z,99.90
2018-11-02T20:10:23.524Z,99.90
2018-11-02T20:12:52.010Z,99.90
2018-11-02T20:15:20.549Z,99.90
2018-11-02T20:17:49.120Z,99.90
2018-11-02T20:20:17.940Z,99.90
2018-11-02T20:22:46.581Z,99.90
2018-11-02T20:25:16.530Z,99.90
2018-11-02T20:27:45.312Z,99.90
2018-11-02T20:30:15.534Z,99.90
2018-11-02T20:32:44.213Z,99.90
2018-11-02T20:35:12.895Z,99.90
2018-11-02T20:37:41.429Z,99.90
2018-11-02T20:40:12.530Z,99.90
2018-11-02T20:42:41.545Z,99.90
2018-11-02T20:45:10.105Z,99.90
2018-11-02T20:47:43.928Z,99.90
2018-11-02T20:50:13.029Z,99.90
2018-11-02T20:52:41.616Z,99.90
2018-11-02T20:55:11.530Z,99.90
2018-11-02T20:57:40.421Z,99.90
2018-11-02T21:00:11.850Z,99.90
2018-11-02T21:02:41.146Z,99.90
2018-11-02T21:05:11.369Z,99.90
2018-11-02T21:07:40.105Z,99.90
2018-11-02T21:10:10.015Z,99.90
2018-11-02T21:12:38.273Z,99.90
2018-11-02T21:15:09.153Z,99.90
2018-11-02T21:17:37.205Z,99.90
2018-11-02T21:20:07.495Z,99.90
2018-11-02T21:22:35.769Z,99.90
2018-11-02T21:25:04.148Z,99.90
2018-11-02T21:27:32.404Z,99.90
2018-11-02T21:30:00.783Z,99.90
2018-11-02T21:32:29.176Z,99.90
2018-11-02T21:34:57.465Z,99.90
2018-11-02T21:37:25.742Z,99.90
2018-11-02T21:39:54.027Z,99.90
2018-11-02T21:42:22.257Z,99.90
2018-11-02T21:44:50.481Z,99.90
2018-11-02T21:47:18.821Z,99.90
2018-11-02T21:49:47.058Z,99.90
2018-11-02T21:52:15.289Z,99.90
2018-11-02T21:54:43.597Z,99.90
2018-11-02T21:57:11.874Z,99.90
2018-11-02T21:59:40.134Z,99.90
2018-11-02T22:02:08.406Z,99.90
2018-11-02T22:04:36.673Z,99.90
2018-11-02T22:07:05.213Z,99.90
2018-11-02T22:09:33.466Z,99.90
2018-11-02T22:12:01.711Z,99.90
2018-11-02T22:14:29.985Z,99.90
2018-11-02T22:16:58.248Z,99.90
2018-11-02T22:19:26.556Z,99.90
2018-11-02T22:21:54.966Z,99.90
2018-11-02T22:24:23.217Z,99.90
2018-11-02T22:26:51.705Z,99.90
2018-11-02T22:29:20.342Z,99.90
2018-11-02T22:31:48.557Z,99.90
2018-11-02T22:34:16.797Z,99.90
2018-11-02T22:36:45.014Z,99.90
2018-11-02T22:39:13.251Z,99.90
2018-11-02T22:41:41.469Z,99.90
2018-11-02T22:44:10.047Z,99.90
2018-11-02T22:46:38.294Z,99.90
2018-11-02T22:49:06.514Z,99.90
2018-11-02T22:51:34.791Z,99.90
2018-11-02T22:54:03.090Z,99.90
2018-11-02T22:56:31.388Z,99.90
2018-11-02T22:58:59.597Z,99.90
2018-11-02T23:01:28.709Z,99.90
2018-11-02T23:03:58.827Z,99.90
2018-11-02T23:06:27.846Z,99.90
2018-11-02T23:08:56.477Z,99.90
2018-11-02T23:11:25.302Z,99.90
2018-11-02T23:13:53.766Z,99.90
2018-11-02T23:16:22.041Z,99.90
2018-11-02T23:18:50.488Z,99.90
2018-11-02T23:21:19.257Z,99.90
2018-11-02T23:23:47.477Z,99.90
2018-11-02T23:26:15.743Z,99.90
2018-11-02T23:28:44.253Z,99.90
2018-11-02T23:31:12.469Z,99.90
2018-11-02T23:33:40.709Z,99.90
2018-11-02T23:36:08.981Z,99.90
2018-11-02T23:38:37.218Z,99.90
2018-11-02T23:41:05.911Z,99.90
2018-11-02T23:43:34.920Z,99.90
2018-11-02T23:46:03.659Z,99.90
2018-11-02T23:48:32.512Z,99.90
2018-11-02T23:51:01.288Z,99.90
2018-11-02T23:53:30.039Z,99.90
2018-11-02T23:55:58.869Z,99.90
2018-11-02T23:58:27.595Z,99.90
